sensor_id;sensor_type;location;lat;lon;timestamp;P1;durP1;ratioP1;P2;durP2;ratioP2
635;SDS011;302;50.206;8.196;2022-10-16T00:00:37;3.03;;;1.90;;
635;SDS011;302;50.206;8.196;2022-10-16T00:03:02;5.80;;;2.40;;
635;SDS011;302;50.206;8.196;2022-10-16T00:05:28;2.40;;;2.20;;
635;SDS011;302;50.206;8.196;2022-10-16T00:07:53;3.60;;;1.93;;
635;SDS011;302;50.206;8.196;2022-10-16T00:10:18;2.00;;;1.90;;
635;SDS011;302;50.206;8.196;2022-10-16T00:12:43;4.40;;;1.90;;
635;SDS011;302;50.206;8.196;2022-10-16T00:15:08;2.13;;;1.92;;
635;SDS011;302;50.206;8.196;2022-10-16T00:17:34;3.43;;;1.80;;
635;SDS011;302;50.206;8.196;2022-10-16T00:19:59;1.90;;;1.80;;
635;SDS011;302;50.206;8.196;2022-10-16T00:22:24;2.42;;;2.22;;
635;SDS011;302;50.206;8.196;2022-10-16T00:24:49;1.88;;;1.77;;
635;SDS011;302;50.206;8.196;2022-10-16T00:27:15;1.83;;;1.73;;
635;SDS011;302;50.206;8.196;2022-10-16T00:29:40;3.60;;;2.30;;
635;SDS011;302;50.206;8.196;2022-10-16T00:32:05;2.17;;;2.00;;
635;SDS011;302;50.206;8.196;2022-10-16T00:34:30;4.75;;;2.30;;
635;SDS011;302;50.206;8.196;2022-10-16T00:36:55;2.40;;;2.20;;
635;SDS011;302;50.206;8.196;2022-10-16T00:39:20;2.07;;;1.93;;
635;SDS011;302;50.206;8.196;2022-10-16T00:41:47;2.20;;;2.00;;
635;SDS011;302;50.206;8.196;2022-10-16T00:46:56;2.20;;;2.10;;
635;SDS011;302;50.206;8.196;2022-10-16T00:49:21;2.35;;;2.25;;
635;SDS011;302;50.206;8.196;2022-10-16T00:51:47;3.00;;;2.70;;
635;SDS011;302;50.206;8.196;2022-10-16T00:57:07;2.25;;;2.15;;
635;SDS011;302;50.206;8.196;2022-10-16T00:59:36;4.30;;;2.67;;
635;SDS011;302;50.206;8.196;2022-10-16T01:02:02;2.63;;;2.53;;
635;SDS011;302;50.206;8.196;2022-10-16T01:04:30;2.60;;;2.40;;
635;SDS011;302;50.206;8.196;2022-10-16T01:09:41;3.08;;;2.25;;
635;SDS011;302;50.206;8.196;2022-10-16T01:14:46;2.10;;;2.00;;
635;SDS011;302;50.206;8.196;2022-10-16T01:19:47;2.00;;;1.90;;
635;SDS011;302;50.206;8.196;2022-10-16T01:22:13;2.25;;;2.08;;
635;SDS011;302;50.206;8.196;2022-10-16T01:24:43;2.20;;;2.10;;
635;SDS011;302;50.206;8.196;2022-10-16T01:27:13;3.42;;;2.30;;
635;SDS011;302;50.206;8.196;2022-10-16T01:32:06;2.10;;;1.80;;
635;SDS011;302;50.206;8.196;2022-10-16T01:34:35;2.83;;;2.63;;
635;SDS011;302;50.206;8.196;2022-10-16T01:37:04;2.35;;;2.20;;
635;SDS011;302;50.206;8.196;2022-10-16T01:39:30;2.20;;;2.10;;
635;SDS011;302;50.206;8.196;2022-10-16T01:42:02;2.33;;;2.10;;
635;SDS011;302;50.206;8.196;2022-10-16T01:44:29;3.08;;;2.78;;
635;SDS011;302;50.206;8.196;2022-10-16T01:46:56;3.63;;;2.15;;
635;SDS011;302;50.206;8.196;2022-10-16T01:49:22;4.27;;;3.87;;
635;SDS011;302;50.206;8.196;2022-10-16T01:51:49;1.70;;;1.60;;
635;SDS011;302;50.206;8.196;2022-10-16T01:54:16;1.70;;;1.60;;
635;SDS011;302;50.206;8.196;2022-10-16T01:56:43;2.88;;;1.70;;
635;SDS011;302;50.206;8.196;2022-10-16T01:59:11;2.22;;;2.03;;
635;SDS011;302;50.206;8.196;2022-10-16T02:01:38;2.38;;;2.00;;
635;SDS011;302;50.206;8.196;2022-10-16T02:04:10;2.10;;;1.90;;
635;SDS011;302;50.206;8.196;2022-10-16T02:06:36;1.85;;;1.75;;
635;SDS011;302;50.206;8.196;2022-10-16T02:09:02;1.70;;;1.60;;
635;SDS011;302;50.206;8.196;2022-10-16T02:11:27;1.90;;;1.80;;
635;SDS011;302;50.206;8.196;2022-10-16T02:13:55;2.27;;;2.07;;
635;SDS011;302;50.206;8.196;2022-10-16T02:16:23;1.42;;;1.30;;
635;SDS011;302;50.206;8.196;2022-10-16T02:18:56;1.67;;;1.58;;
635;SDS011;302;50.206;8.196;2022-10-16T02:21:23;1.95;;;1.85;;
635;SDS011;302;50.206;8.196;2022-10-16T02:26:23;1.98;;;1.77;;
635;SDS011;302;50.206;8.196;2022-10-16T02:28:52;1.80;;;1.70;;
635;SDS011;302;50.206;8.196;2022-10-16T02:31:21;2.30;;;2.20;;
635;SDS011;302;50.206;8.196;2022-10-16T02:33:48;2.22;;;2.03;;
635;SDS011;302;50.206;8.196;2022-10-16T02:36:15;2.30;;;2.10;;
635;SDS011;302;50.206;8.196;2022-10-16T02:38:40;2.50;;;2.20;;
635;SDS011;302;50.206;8.196;2022-10-16T02:41:06;3.10;;;2.27;;
635;SDS011;302;50.206;8.196;2022-10-16T02:43:31;2.80;;;2.20;;
635;SDS011;302;50.206;8.196;2022-10-16T02:45:58;2.95;;;2.75;;
635;SDS011;302;50.206;8.196;2022-10-16T02:48:24;4.70;;;2.70;;
635;SDS011;302;50.206;8.196;2022-10-16T02:50:49;3.00;;;2.78;;
635;SDS011;302;50.206;8.196;2022-10-16T02:53:14;5.05;;;2.88;;
635;SDS011;302;50.206;8.196;2022-10-16T02:55:39;2.40;;;2.00;;
635;SDS011;302;50.206;8.196;2022-10-16T02:58:04;1.50;;;1.40;;
635;SDS011;302;50.206;8.196;2022-10-16T03:00:29;1.73;;;1.55;;
635;SDS011;302;50.206;8.196;2022-10-16T03:02:55;1.20;;;1.10;;
635;SDS011;302;50.206;8.196;2022-10-16T03:05:20;1.80;;;1.47;;
635;SDS011;302;50.206;8.196;2022-10-16T03:07:45;11.25;;;2.35;;
635;SDS011;302;50.206;8.196;2022-10-16T03:10:10;1.60;;;1.45;;
635;SDS011;302;50.206;8.196;2022-10-16T03:12:35;1.37;;;1.23;;
635;SDS011;302;50.206;8.196;2022-10-16T03:15:00;1.30;;;1.20;;
635;SDS011;302;50.206;8.196;2022-10-16T03:17:26;1.40;;;1.30;;
635;SDS011;302;50.206;8.196;2022-10-16T03:19:51;1.43;;;1.33;;
635;SDS011;302;50.206;8.196;2022-10-16T03:22:16;13.13;;;2.40;;
635;SDS011;302;50.206;8.196;2022-10-16T03:24:41;1.40;;;1.30;;
635;SDS011;302;50.206;8.196;2022-10-16T03:27:06;1.53;;;1.43;;
635;SDS011;302;50.206;8.196;2022-10-16T03:29:32;3.97;;;1.60;;
635;SDS011;302;50.206;8.196;2022-10-16T03:31:57;1.50;;;1.40;;
635;SDS011;302;50.206;8.196;2022-10-16T03:34:23;1.60;;;1.50;;
635;SDS011;302;50.206;8.196;2022-10-16T03:36:49;1.67;;;1.57;;
635;SDS011;302;50.206;8.196;2022-10-16T03:39:14;1.73;;;1.63;;
635;SDS011;302;50.206;8.196;2022-10-16T03:41:39;2.40;;;2.03;;
635;SDS011;302;50.206;8.196;2022-10-16T03:44:04;4.75;;;1.52;;
635;SDS011;302;50.206;8.196;2022-10-16T03:46:29;2.00;;;1.80;;
635;SDS011;302;50.206;8.196;2022-10-16T03:48:55;1.87;;;1.77;;
635;SDS011;302;50.206;8.196;2022-10-16T03:51:20;1.67;;;1.57;;
635;SDS011;302;50.206;8.196;2022-10-16T03:53:45;1.93;;;1.83;;
635;SDS011;302;50.206;8.196;2022-10-16T03:56:10;1.97;;;1.87;;
635;SDS011;302;50.206;8.196;2022-10-16T03:58:35;2.25;;;1.80;;
635;SDS011;302;50.206;8.196;2022-10-16T04:01:01;3.27;;;1.80;;
635;SDS011;302;50.206;8.196;2022-10-16T04:03:26;1.80;;;1.65;;
635;SDS011;302;50.206;8.196;2022-10-16T04:05:51;2.37;;;1.90;;
635;SDS011;302;50.206;8.196;2022-10-16T04:08:16;1.70;;;1.60;;
635;SDS011;302;50.206;8.196;2022-10-16T04:10:42;3.73;;;2.20;;
635;SDS011;302;50.206;8.196;2022-10-16T04:13:07;2.10;;;1.80;;
635;SDS011;302;50.206;8.196;2022-10-16T04:15:33;1.77;;;1.67;;
635;SDS011;302;50.206;8.196;2022-10-16T04:17:58;1.98;;;1.70;;
635;SDS011;302;50.206;8.196;2022-10-16T04:20:23;1.60;;;1.50;;
635;SDS011;302;50.206;8.196;2022-10-16T04:22:48;1.50;;;1.40;;
635;SDS011;302;50.206;8.196;2022-10-16T04:25:13;1.98;;;1.70;;
635;SDS011;302;50.206;8.196;2022-10-16T04:27:39;1.73;;;1.30;;
635;SDS011;302;50.206;8.196;2022-10-16T04:30:04;2.17;;;1.57;;
635;SDS011;302;50.206;8.196;2022-10-16T04:32:29;1.97;;;1.30;;
635;SDS011;302;50.206;8.196;2022-10-16T04:34:55;2.58;;;1.70;;
635;SDS011;302;50.206;8.196;2022-10-16T04:37:23;1.87;;;1.77;;
635;SDS011;302;50.206;8.196;2022-10-16T04:39:48;2.00;;;1.90;;
635;SDS011;302;50.206;8.196;2022-10-16T04:42:13;1.67;;;1.58;;
635;SDS011;302;50.206;8.196;2022-10-16T04:44:38;2.03;;;1.40;;
635;SDS011;302;50.206;8.196;2022-10-16T04:47:04;1.70;;;1.60;;
635;SDS011;302;50.206;8.196;2022-10-16T04:49:29;1.80;;;1.70;;
635;SDS011;302;50.206;8.196;2022-10-16T04:51:54;2.30;;;2.10;;
635;SDS011;302;50.206;8.196;2022-10-16T04:54:19;2.25;;;1.88;;
635;SDS011;302;50.206;8.196;2022-10-16T04:56:45;2.42;;;2.22;;
635;SDS011;302;50.206;8.196;2022-10-16T04:59:15;2.70;;;2.00;;
635;SDS011;302;50.206;8.196;2022-10-16T05:01:40;1.70;;;1.60;;
635;SDS011;302;50.206;8.196;2022-10-16T05:04:05;1.90;;;1.80;;
635;SDS011;302;50.206;8.196;2022-10-16T05:06:30;1.70;;;1.60;;
635;SDS011;302;50.206;8.196;2022-10-16T05:08:55;1.63;;;1.53;;
635;SDS011;302;50.206;8.196;2022-10-16T05:11:20;2.20;;;1.73;;
635;SDS011;302;50.206;8.196;2022-10-16T05:13:45;1.77;;;1.67;;
635;SDS011;302;50.206;8.196;2022-10-16T05:16:11;1.65;;;1.55;;
635;SDS011;302;50.206;8.196;2022-10-16T05:18:36;2.00;;;1.90;;
635;SDS011;302;50.206;8.196;2022-10-16T05:21:01;2.33;;;2.20;;
635;SDS011;302;50.206;8.196;2022-10-16T05:23:26;2.35;;;1.90;;
635;SDS011;302;50.206;8.196;2022-10-16T05:25:52;2.50;;;2.30;;
635;SDS011;302;50.206;8.196;2022-10-16T05:28:18;2.75;;;2.55;;
635;SDS011;302;50.206;8.196;2022-10-16T05:30:43;2.43;;;2.10;;
635;SDS011;302;50.206;8.196;2022-10-16T05:33:08;2.42;;;2.33;;
635;SDS011;302;50.206;8.196;2022-10-16T05:35:33;3.05;;;2.85;;
635;SDS011;302;50.206;8.196;2022-10-16T05:37:58;3.50;;;3.30;;
635;SDS011;302;50.206;8.196;2022-10-16T05:40:24;3.50;;;3.30;;
635;SDS011;302;50.206;8.196;2022-10-16T05:42:49;4.17;;;3.87;;
635;SDS011;302;50.206;8.196;2022-10-16T05:45:14;4.70;;;4.30;;
635;SDS011;302;50.206;8.196;2022-10-16T05:47:39;4.27;;;3.97;;
635;SDS011;302;50.206;8.196;2022-10-16T05:50:04;3.80;;;3.50;;
635;SDS011;302;50.206;8.196;2022-10-16T05:52:30;4.27;;;3.97;;
635;SDS011;302;50.206;8.196;2022-10-16T05:54:55;4.03;;;3.77;;
635;SDS011;302;50.206;8.196;2022-10-16T05:57:20;4.95;;;4.55;;
635;SDS011;302;50.206;8.196;2022-10-16T05:59:45;4.57;;;4.10;;
635;SDS011;302;50.206;8.196;2022-10-16T06:02:14;4.43;;;4.10;;
635;SDS011;302;50.206;8.196;2022-10-16T06:04:39;4.45;;;4.15;;
635;SDS011;302;50.206;8.196;2022-10-16T06:07:04;4.87;;;4.47;;
635;SDS011;302;50.206;8.196;2022-10-16T06:09:30;4.13;;;3.83;;
635;SDS011;302;50.206;8.196;2022-10-16T06:11:55;4.00;;;3.70;;
635;SDS011;302;50.206;8.196;2022-10-16T06:14:20;4.23;;;3.83;;
635;SDS011;302;50.206;8.196;2022-10-16T06:16:45;4.38;;;4.07;;
635;SDS011;302;50.206;8.196;2022-10-16T06:19:10;4.35;;;3.95;;
635;SDS011;302;50.206;8.196;2022-10-16T06:21:35;4.17;;;3.90;;
635;SDS011;302;50.206;8.196;2022-10-16T06:24:01;5.07;;;4.77;;
635;SDS011;302;50.206;8.196;2022-10-16T06:26:28;5.20;;;4.70;;
635;SDS011;302;50.206;8.196;2022-10-16T06:28:54;4.85;;;4.55;;
635;SDS011;302;50.206;8.196;2022-10-16T06:31:19;4.65;;;4.32;;
635;SDS011;302;50.206;8.196;2022-10-16T06:33:44;4.37;;;4.10;;
635;SDS011;302;50.206;8.196;2022-10-16T06:36:12;5.43;;;4.93;;
635;SDS011;302;50.206;8.196;2022-10-16T06:38:38;4.85;;;4.50;;
635;SDS011;302;50.206;8.196;2022-10-16T06:41:03;5.80;;;4.07;;
635;SDS011;302;50.206;8.196;2022-10-16T06:43:29;5.33;;;4.93;;
635;SDS011;302;50.206;8.196;2022-10-16T06:45:57;5.45;;;5.05;;
635;SDS011;302;50.206;8.196;2022-10-16T06:48:22;7.40;;;4.53;;
635;SDS011;302;50.206;8.196;2022-10-16T06:50:55;5.50;;;5.10;;
635;SDS011;302;50.206;8.196;2022-10-16T06:53:20;6.25;;;5.80;;
635;SDS011;302;50.206;8.196;2022-10-16T06:55:45;4.50;;;4.20;;
635;SDS011;302;50.206;8.196;2022-10-16T06:58:10;5.35;;;5.00;;
635;SDS011;302;50.206;8.196;2022-10-16T07:00:35;6.10;;;5.65;;
635;SDS011;302;50.206;8.196;2022-10-16T07:03:01;6.65;;;6.15;;
635;SDS011;302;50.206;8.196;2022-10-16T07:05:26;7.65;;;7.07;;
635;SDS011;302;50.206;8.196;2022-10-16T07:07:51;9.60;;;5.68;;
635;SDS011;302;50.206;8.196;2022-10-16T07:10:16;6.80;;;6.30;;
635;SDS011;302;50.206;8.196;2022-10-16T07:12:41;6.70;;;6.30;;
635;SDS011;302;50.206;8.196;2022-10-16T07:15:07;6.60;;;6.10;;
635;SDS011;302;50.206;8.196;2022-10-16T07:17:32;5.50;;;5.10;;
635;SDS011;302;50.206;8.196;2022-10-16T07:19:57;5.40;;;5.00;;
635;SDS011;302;50.206;8.196;2022-10-16T07:22:22;6.10;;;5.70;;
635;SDS011;302;50.206;8.196;2022-10-16T07:24:47;5.80;;;5.40;;
635;SDS011;302;50.206;8.196;2022-10-16T07:27:13;5.57;;;5.17;;
635;SDS011;302;50.206;8.196;2022-10-16T07:29:38;9.00;;;5.07;;
635;SDS011;302;50.206;8.196;2022-10-16T07:32:03;5.60;;;5.10;;
635;SDS011;302;50.206;8.196;2022-10-16T07:34:28;4.80;;;4.43;;
635;SDS011;302;50.206;8.196;2022-10-16T07:36:54;5.20;;;4.73;;
635;SDS011;302;50.206;8.196;2022-10-16T07:39:19;4.90;;;4.50;;
635;SDS011;302;50.206;8.196;2022-10-16T07:41:44;4.97;;;4.67;;
635;SDS011;302;50.206;8.196;2022-10-16T07:44:09;5.27;;;4.87;;
635;SDS011;302;50.206;8.196;2022-10-16T07:46:34;4.47;;;4.07;;
635;SDS011;302;50.206;8.196;2022-10-16T07:49:00;4.40;;;4.10;;
635;SDS011;302;50.206;8.196;2022-10-16T07:51:26;5.10;;;4.70;;
635;SDS011;302;50.206;8.196;2022-10-16T07:53:51;8.07;;;7.30;;
635;SDS011;302;50.206;8.196;2022-10-16T07:56:17;17.40;;;15.67;;
635;SDS011;302;50.206;8.196;2022-10-16T07:58:42;21.50;;;19.20;;
635;SDS011;302;50.206;8.196;2022-10-16T08:01:09;11.77;;;10.67;;
635;SDS011;302;50.206;8.196;2022-10-16T08:03:35;5.35;;;4.85;;
635;SDS011;302;50.206;8.196;2022-10-16T08:06:00;5.13;;;4.73;;
635;SDS011;302;50.206;8.196;2022-10-16T08:08:26;4.77;;;4.47;;
635;SDS011;302;50.206;8.196;2022-10-16T08:10:51;4.57;;;4.27;;
635;SDS011;302;50.206;8.196;2022-10-16T08:13:17;4.82;;;4.47;;
635;SDS011;302;50.206;8.196;2022-10-16T08:15:42;5.13;;;4.70;;
635;SDS011;302;50.206;8.196;2022-10-16T08:18:08;5.90;;;5.40;;
635;SDS011;302;50.206;8.196;2022-10-16T08:20:34;5.15;;;4.75;;
635;SDS011;302;50.206;8.196;2022-10-16T08:22:59;5.40;;;4.90;;
635;SDS011;302;50.206;8.196;2022-10-16T08:25:24;6.90;;;6.30;;
635;SDS011;302;50.206;8.196;2022-10-16T08:27:50;6.40;;;5.90;;
635;SDS011;302;50.206;8.196;2022-10-16T08:30:16;7.57;;;6.87;;
635;SDS011;302;50.206;8.196;2022-10-16T08:32:41;6.57;;;6.00;;
635;SDS011;302;50.206;8.196;2022-10-16T08:35:07;7.13;;;6.53;;
635;SDS011;302;50.206;8.196;2022-10-16T08:37:32;6.00;;;5.47;;
635;SDS011;302;50.206;8.196;2022-10-16T08:39:57;5.03;;;4.63;;
635;SDS011;302;50.206;8.196;2022-10-16T08:42:29;5.70;;;5.20;;
635;SDS011;302;50.206;8.196;2022-10-16T08:45:08;5.45;;;5.05;;
635;SDS011;302;50.206;8.196;2022-10-16T08:47:49;5.28;;;4.88;;
635;SDS011;302;50.206;8.196;2022-10-16T08:50:28;4.80;;;4.40;;
635;SDS011;302;50.206;8.196;2022-10-16T08:52:54;4.40;;;4.10;;
635;SDS011;302;50.206;8.196;2022-10-16T08:55:28;5.67;;;4.10;;
635;SDS011;302;50.206;8.196;2022-10-16T08:57:54;4.38;;;4.05;;
635;SDS011;302;50.206;8.196;2022-10-16T09:00:19;3.40;;;3.10;;
635;SDS011;302;50.206;8.196;2022-10-16T09:10:50;2.00;;;1.90;;
635;SDS011;302;50.206;8.196;2022-10-16T09:13:22;2.15;;;2.05;;
635;SDS011;302;50.206;8.196;2022-10-16T09:23:12;2.60;;;1.70;;
635;SDS011;302;50.206;8.196;2022-10-16T09:25:39;1.52;;;1.42;;
635;SDS011;302;50.206;8.196;2022-10-16T09:28:07;1.80;;;1.70;;
635;SDS011;302;50.206;8.196;2022-10-16T09:30:33;1.42;;;1.33;;
635;SDS011;302;50.206;8.196;2022-10-16T09:32:58;1.85;;;1.20;;
635;SDS011;302;50.206;8.196;2022-10-16T09:35:31;1.57;;;1.30;;
635;SDS011;302;50.206;8.196;2022-10-16T09:37:56;1.60;;;1.50;;
635;SDS011;302;50.206;8.196;2022-10-16T09:42:57;2.17;;;1.90;;
635;SDS011;302;50.206;8.196;2022-10-16T09:45:22;11.25;;;10.10;;
635;SDS011;302;50.206;8.196;2022-10-16T09:47:48;17.90;;;15.70;;
635;SDS011;302;50.206;8.196;2022-10-16T09:50:26;4.20;;;3.80;;
635;SDS011;302;50.206;8.196;2022-10-16T09:53:14;2.10;;;2.00;;
635;SDS011;302;50.206;8.196;2022-10-16T09:55:48;1.80;;;1.70;;
635;SDS011;302;50.206;8.196;2022-10-16T09:58:14;1.85;;;1.52;;
635;SDS011;302;50.206;8.196;2022-10-16T10:00:40;2.28;;;1.92;;
635;SDS011;302;50.206;8.196;2022-10-16T10:03:10;2.10;;;1.85;;
635;SDS011;302;50.206;8.196;2022-10-16T10:05:35;2.10;;;2.00;;
635;SDS011;302;50.206;8.196;2022-10-16T10:08:02;2.15;;;1.80;;
635;SDS011;302;50.206;8.196;2022-10-16T10:10:32;1.80;;;1.70;;
635;SDS011;302;50.206;8.196;2022-10-16T10:12:57;1.80;;;1.65;;
635;SDS011;302;50.206;8.196;2022-10-16T10:15:23;1.67;;;1.57;;
635;SDS011;302;50.206;8.196;2022-10-16T10:17:53;1.80;;;1.70;;
635;SDS011;302;50.206;8.196;2022-10-16T10:20:26;1.80;;;1.70;;
635;SDS011;302;50.206;8.196;2022-10-16T10:22:53;1.50;;;1.40;;
635;SDS011;302;50.206;8.196;2022-10-16T10:27:52;1.77;;;1.40;;
635;SDS011;302;50.206;8.196;2022-10-16T10:38:27;1.47;;;1.37;;
635;SDS011;302;50.206;8.196;2022-10-16T10:45:45;2.75;;;1.58;;
635;SDS011;302;50.206;8.196;2022-10-16T10:50:56;1.50;;;1.40;;
635;SDS011;302;50.206;8.196;2022-10-16T10:58:27;2.30;;;1.80;;
635;SDS011;302;50.206;8.196;2022-10-16T11:03:40;1.60;;;1.40;;
635;SDS011;302;50.206;8.196;2022-10-16T11:06:08;1.40;;;1.07;;
635;SDS011;302;50.206;8.196;2022-10-16T11:08:38;1.40;;;1.30;;
635;SDS011;302;50.206;8.196;2022-10-16T11:11:14;1.60;;;1.50;;
635;SDS011;302;50.206;8.196;2022-10-16T11:16:18;3.33;;;1.67;;
635;SDS011;302;50.206;8.196;2022-10-16T11:18:48;2.73;;;1.50;;
635;SDS011;302;50.206;8.196;2022-10-16T11:21:15;1.70;;;1.53;;
635;SDS011;302;50.206;8.196;2022-10-16T11:26:11;2.58;;;1.75;;
635;SDS011;302;50.206;8.196;2022-10-16T11:28:45;2.63;;;1.90;;
635;SDS011;302;50.206;8.196;2022-10-16T11:31:21;1.70;;;1.60;;
635;SDS011;302;50.206;8.196;2022-10-16T11:33:54;2.23;;;1.87;;
635;SDS011;302;50.206;8.196;2022-10-16T11:36:23;2.33;;;1.93;;
635;SDS011;302;50.206;8.196;2022-10-16T11:38:51;1.60;;;1.50;;
635;SDS011;302;50.206;8.196;2022-10-16T11:44:09;1.73;;;1.63;;
635;SDS011;302;50.206;8.196;2022-10-16T11:46:38;3.80;;;2.23;;
635;SDS011;302;50.206;8.196;2022-10-16T11:49:10;1.80;;;1.70;;
635;SDS011;302;50.206;8.196;2022-10-16T11:51:45;1.60;;;1.50;;
635;SDS011;302;50.206;8.196;2022-10-16T11:54:20;1.90;;;1.80;;
635;SDS011;302;50.206;8.196;2022-10-16T11:56:47;2.10;;;1.77;;
635;SDS011;302;50.206;8.196;2022-10-16T11:59:17;2.57;;;2.37;;
635;SDS011;302;50.206;8.196;2022-10-16T12:01:48;4.07;;;3.10;;
635;SDS011;302;50.206;8.196;2022-10-16T12:04:24;2.97;;;2.77;;
635;SDS011;302;50.206;8.196;2022-10-16T12:06:57;2.33;;;2.20;;
635;SDS011;302;50.206;8.196;2022-10-16T12:11:51;3.20;;;3.00;;
635;SDS011;302;50.206;8.196;2022-10-16T12:14:22;3.20;;;2.93;;
635;SDS011;302;50.206;8.196;2022-10-16T12:16:58;3.10;;;2.90;;
635;SDS011;302;50.206;8.196;2022-10-16T12:19:29;2.83;;;2.63;;
635;SDS011;302;50.206;8.196;2022-10-16T12:21:56;3.00;;;2.80;;
635;SDS011;302;50.206;8.196;2022-10-16T12:24:27;2.77;;;2.57;;
635;SDS011;302;50.206;8.196;2022-10-16T12:26:54;3.07;;;2.87;;
635;SDS011;302;50.206;8.196;2022-10-16T12:31:45;3.67;;;2.97;;
635;SDS011;302;50.206;8.196;2022-10-16T12:34:32;3.07;;;2.87;;
635;SDS011;302;50.206;8.196;2022-10-16T12:37:07;3.03;;;2.83;;
635;SDS011;302;50.206;8.196;2022-10-16T12:39:33;3.43;;;2.93;;
635;SDS011;302;50.206;8.196;2022-10-16T12:42:03;2.97;;;2.77;;
635;SDS011;302;50.206;8.196;2022-10-16T12:44:33;2.20;;;2.00;;
635;SDS011;302;50.206;8.196;2022-10-16T12:46:59;2.40;;;2.20;;
635;SDS011;302;50.206;8.196;2022-10-16T12:49:36;2.50;;;2.30;;
635;SDS011;302;50.206;8.196;2022-10-16T12:52:02;2.70;;;2.17;;
635;SDS011;302;50.206;8.196;2022-10-16T12:54:31;3.00;;;2.70;;
635;SDS011;302;50.206;8.196;2022-10-16T13:02:22;2.40;;;2.20;;
635;SDS011;302;50.206;8.196;2022-10-16T13:10:24;2.60;;;1.90;;
635;SDS011;302;50.206;8.196;2022-10-16T13:13:35;2.80;;;2.03;;
635;SDS011;302;50.206;8.196;2022-10-16T13:15:55;2.07;;;1.87;;
635;SDS011;302;50.206;8.196;2022-10-16T13:23:19;2.10;;;2.00;;
635;SDS011;302;50.206;8.196;2022-10-16T13:28:21;2.80;;;1.90;;
635;SDS011;302;50.206;8.196;2022-10-16T13:30:54;2.73;;;2.07;;
635;SDS011;302;50.206;8.196;2022-10-16T13:35:51;2.33;;;2.13;;
635;SDS011;302;50.206;8.196;2022-10-16T13:38:18;1.90;;;1.80;;
635;SDS011;302;50.206;8.196;2022-10-16T13:43:16;1.73;;;1.63;;
635;SDS011;302;50.206;8.196;2022-10-16T13:45:41;2.00;;;1.90;;
635;SDS011;302;50.206;8.196;2022-10-16T13:48:17;3.10;;;2.07;;
635;SDS011;302;50.206;8.196;2022-10-16T13:50:42;2.07;;;1.87;;
635;SDS011;302;50.206;8.196;2022-10-16T13:53:10;1.98;;;1.70;;
635;SDS011;302;50.206;8.196;2022-10-16T13:55:37;2.30;;;2.10;;
635;SDS011;302;50.206;8.196;2022-10-16T13:58:12;3.73;;;2.30;;
635;SDS011;302;50.206;8.196;2022-10-16T14:00:37;1.50;;;1.40;;
635;SDS011;302;50.206;8.196;2022-10-16T14:03:21;2.17;;;2.07;;
635;SDS011;302;50.206;8.196;2022-10-16T14:05:47;1.60;;;1.50;;
635;SDS011;302;50.206;8.196;2022-10-16T14:08:14;1.90;;;1.80;;
635;SDS011;302;50.206;8.196;2022-10-16T14:10:39;3.17;;;2.07;;
635;SDS011;302;50.206;8.196;2022-10-16T14:13:05;2.17;;;2.00;;
635;SDS011;302;50.206;8.196;2022-10-16T14:15:31;1.73;;;1.63;;
635;SDS011;302;50.206;8.196;2022-10-16T14:17:57;2.40;;;2.20;;
635;SDS011;302;50.206;8.196;2022-10-16T14:20:24;2.00;;;1.90;;
635;SDS011;302;50.206;8.196;2022-10-16T14:22:57;2.53;;;2.10;;
635;SDS011;302;50.206;8.196;2022-10-16T14:25:27;1.73;;;1.63;;
635;SDS011;302;50.206;8.196;2022-10-16T14:30:25;1.90;;;1.80;;
635;SDS011;302;50.206;8.196;2022-10-16T14:32:54;2.47;;;2.17;;
635;SDS011;302;50.206;8.196;2022-10-16T14:37:51;1.90;;;1.80;;
635;SDS011;302;50.206;8.196;2022-10-16T14:40:16;2.93;;;2.10;;
635;SDS011;302;50.206;8.196;2022-10-16T14:42:42;1.90;;;1.80;;
635;SDS011;302;50.206;8.196;2022-10-16T14:45:08;4.30;;;2.03;;
635;SDS011;302;50.206;8.196;2022-10-16T14:47:34;2.47;;;2.10;;
635;SDS011;302;50.206;8.196;2022-10-16T14:50:01;2.83;;;2.17;;
635;SDS011;302;50.206;8.196;2022-10-16T14:52:26;2.75;;;2.25;;
635;SDS011;302;50.206;8.196;2022-10-16T14:54:51;3.55;;;2.13;;
635;SDS011;302;50.206;8.196;2022-10-16T14:57:20;2.23;;;2.03;;
635;SDS011;302;50.206;8.196;2022-10-16T14:59:47;2.23;;;2.03;;
635;SDS011;302;50.206;8.196;2022-10-16T15:04:47;2.30;;;2.20;;
635;SDS011;302;50.206;8.196;2022-10-16T15:07:13;3.03;;;2.33;;
635;SDS011;302;50.206;8.196;2022-10-16T15:09:38;2.73;;;2.40;;
635;SDS011;302;50.206;8.196;2022-10-16T15:12:04;2.95;;;2.03;;
635;SDS011;302;50.206;8.196;2022-10-16T15:14:29;2.70;;;2.50;;
635;SDS011;302;50.206;8.196;2022-10-16T15:16:55;2.50;;;2.30;;
635;SDS011;302;50.206;8.196;2022-10-16T15:19:20;2.70;;;2.50;;
635;SDS011;302;50.206;8.196;2022-10-16T15:21:45;2.93;;;2.73;;
635;SDS011;302;50.206;8.196;2022-10-16T15:24:11;3.53;;;3.33;;
635;SDS011;302;50.206;8.196;2022-10-16T15:26:37;3.57;;;3.27;;
635;SDS011;302;50.206;8.196;2022-10-16T15:29:02;3.13;;;2.83;;
635;SDS011;302;50.206;8.196;2022-10-16T15:31:28;2.95;;;2.50;;
635;SDS011;302;50.206;8.196;2022-10-16T15:33:53;3.07;;;2.87;;
635;SDS011;302;50.206;8.196;2022-10-16T15:36:26;3.33;;;3.03;;
635;SDS011;302;50.206;8.196;2022-10-16T15:38:51;3.10;;;2.90;;
635;SDS011;302;50.206;8.196;2022-10-16T15:41:17;3.33;;;3.03;;
635;SDS011;302;50.206;8.196;2022-10-16T15:43:43;3.40;;;3.10;;
635;SDS011;302;50.206;8.196;2022-10-16T15:46:09;3.67;;;3.37;;
635;SDS011;302;50.206;8.196;2022-10-16T15:48:36;3.50;;;3.30;;
635;SDS011;302;50.206;8.196;2022-10-16T15:51:04;3.67;;;3.37;;
635;SDS011;302;50.206;8.196;2022-10-16T15:53:29;3.40;;;3.20;;
635;SDS011;302;50.206;8.196;2022-10-16T15:55:55;3.27;;;3.07;;
635;SDS011;302;50.206;8.196;2022-10-16T15:58:20;3.20;;;3.00;;
635;SDS011;302;50.206;8.196;2022-10-16T16:00:45;3.67;;;3.43;;
635;SDS011;302;50.206;8.196;2022-10-16T16:03:10;3.53;;;3.20;;
635;SDS011;302;50.206;8.196;2022-10-16T16:05:37;3.30;;;3.03;;
635;SDS011;302;50.206;8.196;2022-10-16T16:08:02;4.20;;;3.90;;
635;SDS011;302;50.206;8.196;2022-10-16T16:10:27;3.43;;;3.13;;
635;SDS011;302;50.206;8.196;2022-10-16T16:12:52;3.47;;;3.20;;
635;SDS011;302;50.206;8.196;2022-10-16T16:15:18;2.90;;;2.70;;
635;SDS011;302;50.206;8.196;2022-10-16T16:17:44;3.77;;;3.47;;
635;SDS011;302;50.206;8.196;2022-10-16T16:20:09;3.67;;;3.37;;
635;SDS011;302;50.206;8.196;2022-10-16T16:22:34;6.90;;;4.50;;
635;SDS011;302;50.206;8.196;2022-10-16T16:24:59;3.30;;;3.10;;
635;SDS011;302;50.206;8.196;2022-10-16T16:27:25;3.25;;;3.05;;
635;SDS011;302;50.206;8.196;2022-10-16T16:29:50;3.72;;;3.42;;
635;SDS011;302;50.206;8.196;2022-10-16T16:32:15;4.00;;;3.70;;
635;SDS011;302;50.206;8.196;2022-10-16T16:34:40;4.88;;;4.35;;
635;SDS011;302;50.206;8.196;2022-10-16T16:37:05;3.73;;;3.43;;
635;SDS011;302;50.206;8.196;2022-10-16T16:39:30;5.67;;;3.37;;
635;SDS011;302;50.206;8.196;2022-10-16T16:41:56;4.00;;;3.80;;
635;SDS011;302;50.206;8.196;2022-10-16T16:44:23;4.00;;;3.70;;
635;SDS011;302;50.206;8.196;2022-10-16T16:46:48;3.93;;;3.73;;
635;SDS011;302;50.206;8.196;2022-10-16T16:49:13;6.20;;;4.40;;
635;SDS011;302;50.206;8.196;2022-10-16T16:51:39;5.15;;;4.45;;
635;SDS011;302;50.206;8.196;2022-10-16T16:54:05;4.43;;;4.13;;
635;SDS011;302;50.206;8.196;2022-10-16T16:56:31;5.85;;;5.45;;
635;SDS011;302;50.206;8.196;2022-10-16T16:58:57;5.47;;;5.07;;
635;SDS011;302;50.206;8.196;2022-10-16T17:01:23;5.73;;;5.37;;
635;SDS011;302;50.206;8.196;2022-10-16T17:03:49;5.28;;;4.90;;
635;SDS011;302;50.206;8.196;2022-10-16T17:06:16;4.65;;;4.35;;
635;SDS011;302;50.206;8.196;2022-10-16T17:08:42;5.57;;;5.17;;
635;SDS011;302;50.206;8.196;2022-10-16T17:11:11;6.00;;;5.50;;
635;SDS011;302;50.206;8.196;2022-10-16T17:13:36;6.10;;;5.70;;
635;SDS011;302;50.206;8.196;2022-10-16T17:16:02;5.57;;;5.20;;
635;SDS011;302;50.206;8.196;2022-10-16T17:18:28;5.87;;;5.37;;
635;SDS011;302;50.206;8.196;2022-10-16T17:20:53;6.00;;;5.60;;
635;SDS011;302;50.206;8.196;2022-10-16T17:23:19;5.00;;;4.68;;
635;SDS011;302;50.206;8.196;2022-10-16T17:25:44;6.27;;;5.60;;
635;SDS011;302;50.206;8.196;2022-10-16T17:28:10;6.50;;;5.63;;